»·PEaware :: DFGCW KALW-8W5

DFGCW :: KALW-8W5

FLIGHT INFORMATION

Flight Status: Arrived
Operator: Unknown
More flights by this operator :: More flights under this callsign
Pilot: Klaus A. (15485)
Aircraft: PILATUS PC-12 EAGLE
(PC12)
More flights by this aircraft type
Origin: KALW Walla Walla Regl
United States
Destination: 8W5 Apex Airpark
United States
More flights between these airports :: More routes between these airports
Route: PSC V204 YKM V4 SEA
File this flight plan on PilotEdge
Remarks:
Altitude:
(Current/Filed)
22,000ft
Speed:
(Current/Filed)
230kts
Departed: 14-May-20 08:34 AM
Arrived: 14-May-20 09:42 AM
Distance/Time
Traveled:
191nm/1:08
Distance/Time
To Go:
Arrived

Flight Plot

Page will automatically refresh every two minutes.

Flight plan parsing failed; only flown route is shown


Map Options




Map Legend


Flown Route
Filed Route
Departure Airport
Arrival Airport
Navaid (VOR, NDB)
Fix

Horizontal Profiles

Position Reports

Time Latitude Longitude Heading Altitude Ground
Speed
14-May-20 08:17 46.091092 -118.282338 305 1210ft 0kts
14-May-20 08:18 46.091092 -118.282338 305 1210ft 0kts
14-May-20 08:19 46.091092 -118.282338 305 1210ft 0kts
14-May-20 08:20 46.091092 -118.282338 305 1210ft 0kts
14-May-20 08:21 46.091092 -118.282338 305 1210ft 0kts
14-May-20 08:22 46.091092 -118.282338 305 1210ft 0kts
14-May-20 08:23 46.091092 -118.282338 305 1210ft 0kts
14-May-20 08:24 46.091613 -118.282375 32 1210ft 5kts
14-May-20 08:25 46.093328 -118.280601 37 1210ft 10kts
14-May-20 08:26 46.096299 -118.277468 36 1210ft 15kts
14-May-20 08:27 46.098244 -118.276067 0 1210ft 0kts
14-May-20 08:28 46.098244 -118.276067 0 1210ft 0kts
14-May-20 08:29 46.098244 -118.276067 0 1210ft 0kts
14-May-20 08:30 46.098244 -118.276067 0 1210ft 0kts
14-May-20 08:31 46.098244 -118.276067 0 1210ft 0kts
14-May-20 08:32 46.098389 -118.276065 0 1210ft 3kts
14-May-20 08:33 46.091625 -118.285222 215 1308ft 105kts
14-May-20 08:34 46.059862 -118.309797 218 2450ft 153kts
14-May-20 08:36 46.050370 -118.365195 294 3941ft 155kts
14-May-20 08:37 46.070465 -118.422822 293 5237ft 165kts
14-May-20 08:38 46.087214 -118.484258 283 6582ft 165kts
14-May-20 08:39 46.102963 -118.546961 292 7748ft 168kts
14-May-20 08:40 46.121552 -118.609698 292 8782ft 172kts
14-May-20 08:41 46.143051 -118.671549 282 9726ft 172kts
14-May-20 08:42 46.161476 -118.735663 284 10443ft 173kts
14-May-20 08:43 46.179939 -118.800299 285 11211ft 176kts
14-May-20 08:44 46.198754 -118.865998 285 11944ft 178kts
14-May-20 08:45 46.217232 -118.930677 285 12625ft 180kts
14-May-20 08:46 46.236393 -118.997951 285 13352ft 183kts
14-May-20 08:47 46.255740 -119.066043 285 14254ft 184kts
14-May-20 08:48 46.274422 -119.135204 282 15059ft 185kts
14-May-20 08:49 46.290895 -119.205915 282 15778ft 187kts
14-May-20 08:50 46.307468 -119.277508 282 16413ft 189kts
14-May-20 08:50 46.321391 -119.337786 282 16894ft 190kts
14-May-20 08:52 46.341045 -119.423150 282 17499ft 192kts
14-May-20 08:53 46.357892 -119.496592 282 17956ft 193kts
14-May-20 08:53 46.372011 -119.558342 282 18290ft 195kts
14-May-20 08:55 46.392000 -119.646063 282 18708ft 197kts
14-May-20 08:55 46.405920 -119.707358 281 18975ft 198kts
14-May-20 08:56 46.423138 -119.783305 281 19265ft 200kts
14-May-20 08:58 46.443335 -119.872983 281 19568ft 201kts
14-May-20 08:58 46.457853 -119.937614 281 19762ft 203kts
14-May-20 08:59 46.475471 -120.016294 282 20084ft 205kts
14-May-20 09:00 46.492897 -120.094397 282 20370ft 206kts
14-May-20 09:01 46.510482 -120.173527 282 20641ft 206kts
14-May-20 09:02 46.528083 -120.253015 282 20897ft 207kts
14-May-20 09:03 46.545643 -120.332623 282 21134ft 207kts
14-May-20 09:04 46.563226 -120.412798 283 21358ft 207kts
14-May-20 09:05 46.590649 -120.487110 300 21547ft 214kts
14-May-20 09:06 46.624692 -120.558322 300 21746ft 214kts
14-May-20 09:07 46.659088 -120.630442 300 21781ft 220kts
14-May-20 09:08 46.694046 -120.703918 300 21779ft 223kts
14-May-20 09:09 46.729444 -120.778521 300 21779ft 224kts
14-May-20 09:10 46.764829 -120.853265 300 21784ft 224kts
14-May-20 09:11 46.800262 -120.928323 300 21788ft 232kts
14-May-20 09:12 46.839564 -121.011829 300 21363ft 268kts
14-May-20 09:13 46.881785 -121.101761 300 20579ft 267kts
14-May-20 09:14 46.923491 -121.190896 300 19795ft 265kts
14-May-20 09:15 46.964890 -121.279734 300 19018ft 265kts
14-May-20 09:16 47.006311 -121.368876 299 18238ft 264kts
14-May-20 09:17 47.047421 -121.457653 299 17456ft 263kts
14-May-20 09:18 47.088403 -121.546435 300 16676ft 263kts
14-May-20 09:19 47.129453 -121.635604 299 16021ft 257kts
14-May-20 09:20 47.168260 -121.719893 298 16018ft 247kts
14-May-20 09:21 47.206692 -121.804247 299 15931ft 251kts
14-May-20 09:22 47.242922 -121.883783 299 15085ft 217kts
14-May-20 09:23 47.275358 -121.955058 298 14266ft 211kts
14-May-20 09:24 47.308461 -122.028086 298 13467ft 216kts
14-May-20 09:25 47.342002 -122.102270 298 12666ft 219kts
14-May-20 09:26 47.375898 -122.177326 298 11858ft 217kts
14-May-20 09:27 47.406669 -122.245635 298 10914ft 206kts
14-May-20 09:28 47.436935 -122.313632 290 9921ft 197kts
14-May-20 09:29 47.456566 -122.387643 285 8923ft 192kts
14-May-20 09:30 47.475616 -122.461144 285 8041ft 184kts
14-May-20 09:31 47.490933 -122.533546 285 7045ft 185kts
14-May-20 09:32 47.517996 -122.595041 325 6053ft 190kts
14-May-20 09:33 47.562610 -122.636710 326 5055ft 189kts
14-May-20 09:34 47.605879 -122.680300 321 4097ft 187kts
14-May-20 09:35 47.646435 -122.726510 311 3215ft 182kts
14-May-20 09:36 47.693671 -122.746967 304 2204ft 181kts
14-May-20 09:37 47.676822 -122.785448 187 2062ft 107kts
14-May-20 09:38 47.647729 -122.786121 173 1705ft 113kts
14-May-20 09:39 47.619602 -122.778137 131 1629ft 111kts
14-May-20 09:40 47.634335 -122.739299 36 1039ft 115kts
14-May-20 09:41 47.659875 -122.732501 6 529ft 10kts
14-May-20 09:42 47.659934 -122.732580 153 528ft 0kts
14-May-20 09:43 47.658340 -122.732563 185 529ft 3kts
14-May-20 09:44 47.658309 -122.732566 185 529ft 0kts
14-May-20 09:45 47.658309 -122.732566 185 529ft 0kts
14-May-20 09:46 47.658309 -122.732566 185 529ft 0kts
14-May-20 09:47 47.658309 -122.732566 185 529ft 0kts
14-May-20 09:48 47.658309 -122.732566 185 529ft 0kts
14-May-20 09:49 47.658309 -122.732566 185 529ft 0kts
14-May-20 09:50 47.658309 -122.732566 185 529ft 0kts
14-May-20 09:51 47.658309 -122.732566 185 529ft 0kts
14-May-20 09:52 47.658309 -122.732566 185 529ft 0kts
14-May-20 09:53 46.098719 -118.276080 355 1210ft 12kts
14-May-20 09:54 46.081990 -118.293695 205 1687ft 116kts
14-May-20 09:55 47.478059 -122.471658 285 7893ft 184kts

Navigation Log

Ident Type
Flight plan parsing failed, navigation log unavailable